sensor_id;sensor_type;location;lat;lon;timestamp;P1;durP1;ratioP1;P2;durP2;ratioP2
69625;SDS011;56847;51.984;5.088;2022-11-22T00:01:44;16.27;;;7.03;;
69625;SDS011;56847;51.984;5.088;2022-11-22T00:04:11;18.57;;;7.80;;
69625;SDS011;56847;51.984;5.088;2022-11-22T00:06:38;17.77;;;8.02;;
69625;SDS011;56847;51.984;5.088;2022-11-22T00:09:05;21.15;;;8.45;;
69625;SDS011;56847;51.984;5.088;2022-11-22T00:11:32;13.50;;;8.13;;
69625;SDS011;56847;51.984;5.088;2022-11-22T00:13:59;16.52;;;7.78;;
69625;SDS011;56847;51.984;5.088;2022-11-22T00:16:25;14.53;;;7.03;;
69625;SDS011;56847;51.984;5.088;2022-11-22T00:18:52;21.17;;;8.18;;
69625;SDS011;56847;51.984;5.088;2022-11-22T00:21:19;16.65;;;7.28;;
69625;SDS011;56847;51.984;5.088;2022-11-22T00:23:46;21.20;;;8.32;;
69625;SDS011;56847;51.984;5.088;2022-11-22T00:26:13;14.45;;;8.07;;
69625;SDS011;56847;51.984;5.088;2022-11-22T00:28:41;14.60;;;7.97;;
69625;SDS011;56847;51.984;5.088;2022-11-22T00:31:11;19.60;;;8.10;;
69625;SDS011;56847;51.984;5.088;2022-11-22T00:34:08;21.33;;;8.75;;
69625;SDS011;56847;51.984;5.088;2022-11-22T00:37:00;20.50;;;9.43;;
69625;SDS011;56847;51.984;5.088;2022-11-22T00:39:50;18.30;;;8.00;;
69625;SDS011;56847;51.984;5.088;2022-11-22T00:43:01;18.43;;;8.47;;
69625;SDS011;56847;51.984;5.088;2022-11-22T00:45:45;20.17;;;8.02;;
69625;SDS011;56847;51.984;5.088;2022-11-22T00:48:30;18.77;;;8.52;;
69625;SDS011;56847;51.984;5.088;2022-11-22T00:51:20;28.70;;;9.02;;
69625;SDS011;56847;51.984;5.088;2022-11-22T00:54:22;16.40;;;8.13;;
69625;SDS011;56847;51.984;5.088;2022-11-22T00:57:11;17.90;;;8.70;;
69625;SDS011;56847;51.984;5.088;2022-11-22T00:59:48;19.65;;;8.98;;
69625;SDS011;56847;51.984;5.088;2022-11-22T01:02:29;19.10;;;7.53;;
69625;SDS011;56847;51.984;5.088;2022-11-22T01:05:21;17.83;;;8.10;;
69625;SDS011;56847;51.984;5.088;2022-11-22T01:08:36;18.73;;;8.75;;
69625;SDS011;56847;51.984;5.088;2022-11-22T01:11:14;17.33;;;8.90;;
69625;SDS011;56847;51.984;5.088;2022-11-22T01:14:20;21.55;;;8.55;;
69625;SDS011;56847;51.984;5.088;2022-11-22T01:17:11;25.45;;;8.20;;
69625;SDS011;56847;51.984;5.088;2022-11-22T01:20:10;20.10;;;8.43;;
69625;SDS011;56847;51.984;5.088;2022-11-22T01:23:19;19.45;;;9.13;;
69625;SDS011;56847;51.984;5.088;2022-11-22T01:25:56;16.40;;;8.17;;
69625;SDS011;56847;51.984;5.088;2022-11-22T01:28:58;22.08;;;8.38;;
69625;SDS011;56847;51.984;5.088;2022-11-22T01:32:02;21.13;;;8.10;;
69625;SDS011;56847;51.984;5.088;2022-11-22T01:38:21;27.08;;;8.25;;
69625;SDS011;56847;51.984;5.088;2022-11-22T01:41:17;19.83;;;7.60;;
69625;SDS011;56847;51.984;5.088;2022-11-22T01:44:33;17.92;;;7.40;;
69625;SDS011;56847;51.984;5.088;2022-11-22T01:47:29;19.92;;;6.88;;
69625;SDS011;56847;51.984;5.088;2022-11-22T01:50:17;20.08;;;6.03;;
69625;SDS011;56847;51.984;5.088;2022-11-22T01:52:59;13.52;;;5.45;;
69625;SDS011;56847;51.984;5.088;2022-11-22T01:56:00;17.03;;;5.50;;
69625;SDS011;56847;51.984;5.088;2022-11-22T01:58:52;20.85;;;6.20;;
69625;SDS011;56847;51.984;5.088;2022-11-22T02:01:49;14.23;;;5.50;;
69625;SDS011;56847;51.984;5.088;2022-11-22T02:04:26;17.45;;;5.55;;
69625;SDS011;56847;51.984;5.088;2022-11-22T02:10:27;19.80;;;4.10;;
69625;SDS011;56847;51.984;5.088;2022-11-22T02:13:39;20.35;;;5.25;;
69625;SDS011;56847;51.984;5.088;2022-11-22T02:16:21;23.25;;;4.35;;
69625;SDS011;56847;51.984;5.088;2022-11-22T02:19:38;18.42;;;5.05;;
69625;SDS011;56847;51.984;5.088;2022-11-22T02:31:50;15.77;;;4.38;;
69625;SDS011;56847;51.984;5.088;2022-11-22T02:34:45;25.58;;;4.72;;
69625;SDS011;56847;51.984;5.088;2022-11-22T02:37:21;19.23;;;4.32;;
69625;SDS011;56847;51.984;5.088;2022-11-22T02:40:06;17.60;;;3.73;;
69625;SDS011;56847;51.984;5.088;2022-11-22T02:43:07;16.77;;;3.78;;
69625;SDS011;56847;51.984;5.088;2022-11-22T02:46:12;18.48;;;4.03;;
69625;SDS011;56847;51.984;5.088;2022-11-22T02:49:05;23.67;;;4.10;;
69625;SDS011;56847;51.984;5.088;2022-11-22T02:52:14;14.43;;;3.92;;
69625;SDS011;56847;51.984;5.088;2022-11-22T02:55:01;19.30;;;3.63;;
69625;SDS011;56847;51.984;5.088;2022-11-22T02:58:11;20.73;;;3.40;;
69625;SDS011;56847;51.984;5.088;2022-11-22T03:00:56;18.50;;;4.13;;
69625;SDS011;56847;51.984;5.088;2022-11-22T03:03:37;23.58;;;3.97;;
69625;SDS011;56847;51.984;5.088;2022-11-22T03:06:29;23.80;;;3.05;;
69625;SDS011;56847;51.984;5.088;2022-11-22T03:09:24;20.10;;;3.83;;
69625;SDS011;56847;51.984;5.088;2022-11-22T03:12:13;21.13;;;3.95;;
69625;SDS011;56847;51.984;5.088;2022-11-22T03:14:52;24.42;;;3.97;;
69625;SDS011;56847;51.984;5.088;2022-11-22T03:17:41;21.65;;;3.63;;
69625;SDS011;56847;51.984;5.088;2022-11-22T03:20:22;19.75;;;4.38;;
69625;SDS011;56847;51.984;5.088;2022-11-22T03:22:55;22.47;;;4.10;;
69625;SDS011;56847;51.984;5.088;2022-11-22T03:25:35;18.48;;;3.30;;
69625;SDS011;56847;51.984;5.088;2022-11-22T03:28:28;15.45;;;3.35;;
69625;SDS011;56847;51.984;5.088;2022-11-22T03:31:03;18.65;;;4.15;;
69625;SDS011;56847;51.984;5.088;2022-11-22T03:33:43;18.27;;;3.63;;
69625;SDS011;56847;51.984;5.088;2022-11-22T03:36:24;20.33;;;4.17;;
69625;SDS011;56847;51.984;5.088;2022-11-22T03:39:04;20.25;;;3.97;;
69625;SDS011;56847;51.984;5.088;2022-11-22T03:41:56;21.15;;;3.55;;
69625;SDS011;56847;51.984;5.088;2022-11-22T03:44:29;28.90;;;3.85;;
69625;SDS011;56847;51.984;5.088;2022-11-22T03:47:22;26.83;;;3.97;;
69625;SDS011;56847;51.984;5.088;2022-11-22T03:49:54;24.17;;;3.77;;
69625;SDS011;56847;51.984;5.088;2022-11-22T03:52:26;16.00;;;3.63;;
69625;SDS011;56847;51.984;5.088;2022-11-22T03:55:04;18.98;;;3.38;;
69625;SDS011;56847;51.984;5.088;2022-11-22T03:57:51;14.38;;;3.15;;
69625;SDS011;56847;51.984;5.088;2022-11-22T04:00:30;21.08;;;4.00;;
69625;SDS011;56847;51.984;5.088;2022-11-22T04:03:33;16.00;;;3.90;;
69625;SDS011;56847;51.984;5.088;2022-11-22T04:06:13;22.80;;;3.95;;
69625;SDS011;56847;51.984;5.088;2022-11-22T04:09:11;19.75;;;3.90;;
69625;SDS011;56847;51.984;5.088;2022-11-22T04:12:06;33.67;;;4.05;;
69625;SDS011;56847;51.984;5.088;2022-11-22T04:15:00;26.27;;;4.18;;
69625;SDS011;56847;51.984;5.088;2022-11-22T04:17:43;17.03;;;3.37;;
69625;SDS011;56847;51.984;5.088;2022-11-22T04:20:24;19.85;;;3.55;;
69625;SDS011;56847;51.984;5.088;2022-11-22T04:23:37;25.77;;;3.65;;
69625;SDS011;56847;51.984;5.088;2022-11-22T04:26:23;26.90;;;4.13;;
69625;SDS011;56847;51.984;5.088;2022-11-22T04:29:04;25.45;;;3.50;;
69625;SDS011;56847;51.984;5.088;2022-11-22T04:31:43;15.23;;;3.80;;
69625;SDS011;56847;51.984;5.088;2022-11-22T04:34:50;18.73;;;3.25;;
69625;SDS011;56847;51.984;5.088;2022-11-22T04:37:19;14.35;;;4.00;;
69625;SDS011;56847;51.984;5.088;2022-11-22T04:39:48;23.13;;;3.67;;
69625;SDS011;56847;51.984;5.088;2022-11-22T04:42:26;26.48;;;4.82;;
69625;SDS011;56847;51.984;5.088;2022-11-22T04:45:27;27.67;;;4.87;;
69625;SDS011;56847;51.984;5.088;2022-11-22T04:47:58;18.67;;;3.92;;
69625;SDS011;56847;51.984;5.088;2022-11-22T04:50:27;22.30;;;3.80;;
69625;SDS011;56847;51.984;5.088;2022-11-22T04:53:19;20.73;;;3.65;;
69625;SDS011;56847;51.984;5.088;2022-11-22T04:55:47;20.40;;;3.85;;
69625;SDS011;56847;51.984;5.088;2022-11-22T04:58:22;25.70;;;3.90;;
69625;SDS011;56847;51.984;5.088;2022-11-22T05:00:50;20.63;;;3.65;;
69625;SDS011;56847;51.984;5.088;2022-11-22T05:03:22;23.90;;;3.28;;
69625;SDS011;56847;51.984;5.088;2022-11-22T05:06:01;10.30;;;3.30;;
69625;SDS011;56847;51.984;5.088;2022-11-22T05:08:38;17.95;;;3.15;;
69625;SDS011;56847;51.984;5.088;2022-11-22T05:11:25;23.90;;;3.77;;
69625;SDS011;56847;51.984;5.088;2022-11-22T05:14:14;10.32;;;3.00;;
69625;SDS011;56847;51.984;5.088;2022-11-22T05:16:50;22.60;;;3.63;;
69625;SDS011;56847;51.984;5.088;2022-11-22T05:19:36;17.83;;;2.65;;
69625;SDS011;56847;51.984;5.088;2022-11-22T05:22:20;18.55;;;2.83;;
69625;SDS011;56847;51.984;5.088;2022-11-22T05:25:28;20.23;;;3.20;;
69625;SDS011;56847;51.984;5.088;2022-11-22T05:28:31;17.98;;;3.92;;
69625;SDS011;56847;51.984;5.088;2022-11-22T05:31:15;15.20;;;2.80;;
69625;SDS011;56847;51.984;5.088;2022-11-22T05:34:09;15.90;;;4.28;;
69625;SDS011;56847;51.984;5.088;2022-11-22T05:37:07;18.10;;;3.58;;
69625;SDS011;56847;51.984;5.088;2022-11-22T05:43:09;18.45;;;3.85;;
69625;SDS011;56847;51.984;5.088;2022-11-22T05:46:02;14.65;;;3.08;;
69625;SDS011;56847;51.984;5.088;2022-11-22T05:49:29;20.23;;;3.35;;
69625;SDS011;56847;51.984;5.088;2022-11-22T05:52:24;18.17;;;3.88;;
69625;SDS011;56847;51.984;5.088;2022-11-22T05:55:17;21.00;;;3.50;;
69625;SDS011;56847;51.984;5.088;2022-11-22T05:58:19;15.30;;;2.67;;
69625;SDS011;56847;51.984;5.088;2022-11-22T06:01:44;17.05;;;3.33;;
69625;SDS011;56847;51.984;5.088;2022-11-22T06:05:09;15.55;;;3.10;;
69625;SDS011;56847;51.984;5.088;2022-11-22T06:07:50;16.33;;;3.53;;
69625;SDS011;56847;51.984;5.088;2022-11-22T06:10:29;12.47;;;2.87;;
69625;SDS011;56847;51.984;5.088;2022-11-22T06:13:43;11.80;;;3.08;;
69625;SDS011;56847;51.984;5.088;2022-11-22T06:16:36;16.15;;;3.50;;
69625;SDS011;56847;51.984;5.088;2022-11-22T06:19:03;14.43;;;3.05;;
69625;SDS011;56847;51.984;5.088;2022-11-22T06:21:36;15.63;;;3.30;;
69625;SDS011;56847;51.984;5.088;2022-11-22T06:24:15;10.80;;;3.27;;
69625;SDS011;56847;51.984;5.088;2022-11-22T06:26:45;20.48;;;3.60;;
69625;SDS011;56847;51.984;5.088;2022-11-22T06:29:12;13.88;;;3.20;;
69625;SDS011;56847;51.984;5.088;2022-11-22T06:31:39;12.75;;;3.72;;
69625;SDS011;56847;51.984;5.088;2022-11-22T06:34:06;16.83;;;3.95;;
69625;SDS011;56847;51.984;5.088;2022-11-22T06:36:33;15.17;;;3.97;;
69625;SDS011;56847;51.984;5.088;2022-11-22T06:39:00;17.58;;;3.70;;
69625;SDS011;56847;51.984;5.088;2022-11-22T06:41:33;21.55;;;4.05;;
69625;SDS011;56847;51.984;5.088;2022-11-22T06:44:05;15.88;;;3.83;;
69625;SDS011;56847;51.984;5.088;2022-11-22T06:46:33;10.30;;;3.75;;
69625;SDS011;56847;51.984;5.088;2022-11-22T06:49:01;20.43;;;3.83;;
69625;SDS011;56847;51.984;5.088;2022-11-22T06:51:29;19.20;;;4.15;;
69625;SDS011;56847;51.984;5.088;2022-11-22T06:53:57;11.52;;;3.45;;
69625;SDS011;56847;51.984;5.088;2022-11-22T06:56:25;24.02;;;3.67;;
69625;SDS011;56847;51.984;5.088;2022-11-22T06:58:57;13.77;;;3.97;;
69625;SDS011;56847;51.984;5.088;2022-11-22T07:01:29;11.10;;;3.60;;
69625;SDS011;56847;51.984;5.088;2022-11-22T07:03:57;14.57;;;3.40;;
69625;SDS011;56847;51.984;5.088;2022-11-22T07:06:25;10.25;;;3.75;;
69625;SDS011;56847;51.984;5.088;2022-11-22T07:08:54;17.98;;;3.88;;
69625;SDS011;56847;51.984;5.088;2022-11-22T07:11:22;11.55;;;3.40;;
69625;SDS011;56847;51.984;5.088;2022-11-22T07:13:51;8.77;;;2.47;;
69625;SDS011;56847;51.984;5.088;2022-11-22T07:16:18;13.82;;;3.35;;
69625;SDS011;56847;51.984;5.088;2022-11-22T07:18:46;11.32;;;2.72;;
69625;SDS011;56847;51.984;5.088;2022-11-22T07:21:18;15.10;;;3.08;;
69625;SDS011;56847;51.984;5.088;2022-11-22T07:23:47;15.38;;;3.22;;
69625;SDS011;56847;51.984;5.088;2022-11-22T07:26:16;11.57;;;2.43;;
69625;SDS011;56847;51.984;5.088;2022-11-22T07:28:44;15.77;;;3.53;;
69625;SDS011;56847;51.984;5.088;2022-11-22T07:31:11;10.23;;;3.13;;
69625;SDS011;56847;51.984;5.088;2022-11-22T07:33:40;12.40;;;3.33;;
69625;SDS011;56847;51.984;5.088;2022-11-22T07:38:36;11.20;;;3.20;;
69625;SDS011;56847;51.984;5.088;2022-11-22T07:41:03;13.57;;;4.28;;
69625;SDS011;56847;51.984;5.088;2022-11-22T07:43:31;13.82;;;3.90;;
69625;SDS011;56847;51.984;5.088;2022-11-22T07:45:58;11.68;;;3.70;;
69625;SDS011;56847;51.984;5.088;2022-11-22T07:48:29;15.48;;;4.15;;
69625;SDS011;56847;51.984;5.088;2022-11-22T07:50:56;15.53;;;3.87;;
69625;SDS011;56847;51.984;5.088;2022-11-22T07:53:28;11.27;;;3.42;;
69625;SDS011;56847;51.984;5.088;2022-11-22T07:55:54;16.83;;;4.47;;
69625;SDS011;56847;51.984;5.088;2022-11-22T07:58:22;10.77;;;2.97;;
69625;SDS011;56847;51.984;5.088;2022-11-22T08:00:49;17.08;;;4.25;;
69625;SDS011;56847;51.984;5.088;2022-11-22T08:03:16;11.87;;;3.37;;
69625;SDS011;56847;51.984;5.088;2022-11-22T08:05:47;10.80;;;4.00;;
69625;SDS011;56847;51.984;5.088;2022-11-22T08:08:14;11.93;;;3.35;;
69625;SDS011;56847;51.984;5.088;2022-11-22T08:10:42;16.75;;;4.85;;
69625;SDS011;56847;51.984;5.088;2022-11-22T08:13:09;8.50;;;3.85;;
69625;SDS011;56847;51.984;5.088;2022-11-22T08:15:36;13.07;;;3.60;;
69625;SDS011;56847;51.984;5.088;2022-11-22T08:18:03;16.65;;;4.40;;
69625;SDS011;56847;51.984;5.088;2022-11-22T08:20:30;14.57;;;5.53;;
69625;SDS011;56847;51.984;5.088;2022-11-22T08:22:57;19.42;;;4.55;;
69625;SDS011;56847;51.984;5.088;2022-11-22T08:25:24;15.07;;;4.50;;
69625;SDS011;56847;51.984;5.088;2022-11-22T08:27:51;18.83;;;4.20;;
69625;SDS011;56847;51.984;5.088;2022-11-22T08:30:18;10.45;;;4.80;;
69625;SDS011;56847;51.984;5.088;2022-11-22T08:32:45;16.42;;;4.70;;
69625;SDS011;56847;51.984;5.088;2022-11-22T08:35:11;15.70;;;3.80;;
69625;SDS011;56847;51.984;5.088;2022-11-22T08:37:39;13.02;;;3.83;;
69625;SDS011;56847;51.984;5.088;2022-11-22T08:40:07;14.43;;;4.83;;
69625;SDS011;56847;51.984;5.088;2022-11-22T08:42:34;13.68;;;5.53;;
69625;SDS011;56847;51.984;5.088;2022-11-22T08:45:01;14.73;;;3.40;;
69625;SDS011;56847;51.984;5.088;2022-11-22T08:47:28;12.48;;;4.25;;
69625;SDS011;56847;51.984;5.088;2022-11-22T08:49:55;10.90;;;4.05;;
69625;SDS011;56847;51.984;5.088;2022-11-22T08:52:22;12.90;;;4.70;;
69625;SDS011;56847;51.984;5.088;2022-11-22T08:54:49;15.40;;;5.00;;
69625;SDS011;56847;51.984;5.088;2022-11-22T08:57:16;18.45;;;5.15;;
69625;SDS011;56847;51.984;5.088;2022-11-22T08:59:43;12.73;;;4.07;;
69625;SDS011;56847;51.984;5.088;2022-11-22T09:02:10;16.65;;;4.63;;
69625;SDS011;56847;51.984;5.088;2022-11-22T09:04:37;11.47;;;3.87;;
69625;SDS011;56847;51.984;5.088;2022-11-22T09:07:03;13.68;;;3.88;;
69625;SDS011;56847;51.984;5.088;2022-11-22T09:09:51;12.60;;;5.30;;
69625;SDS011;56847;51.984;5.088;2022-11-22T09:12:17;15.02;;;5.28;;
69625;SDS011;56847;51.984;5.088;2022-11-22T09:14:44;12.90;;;4.45;;
69625;SDS011;56847;51.984;5.088;2022-11-22T09:17:11;10.23;;;3.70;;
69625;SDS011;56847;51.984;5.088;2022-11-22T09:19:43;12.20;;;3.78;;
69625;SDS011;56847;51.984;5.088;2022-11-22T09:22:10;13.75;;;4.05;;
69625;SDS011;56847;51.984;5.088;2022-11-22T09:24:37;12.40;;;4.18;;
69625;SDS011;56847;51.984;5.088;2022-11-22T09:27:04;7.97;;;3.63;;
69625;SDS011;56847;51.984;5.088;2022-11-22T09:29:31;12.93;;;4.30;;
69625;SDS011;56847;51.984;5.088;2022-11-22T09:31:58;10.65;;;4.50;;
69625;SDS011;56847;51.984;5.088;2022-11-22T09:34:25;16.67;;;4.28;;
69625;SDS011;56847;51.984;5.088;2022-11-22T09:36:52;13.38;;;4.03;;
69625;SDS011;56847;51.984;5.088;2022-11-22T09:39:19;6.78;;;3.75;;
69625;SDS011;56847;51.984;5.088;2022-11-22T09:55:22;6.50;;;3.80;;
69625;SDS011;56847;51.984;5.088;2022-11-22T10:00:39;14.02;;;3.60;;
69625;SDS011;56847;51.984;5.088;2022-11-22T10:03:17;9.23;;;3.53;;
69625;SDS011;56847;51.984;5.088;2022-11-22T10:05:51;9.13;;;3.30;;
69625;SDS011;56847;51.984;5.088;2022-11-22T10:08:33;6.60;;;3.50;;
69625;SDS011;56847;51.984;5.088;2022-11-22T10:11:12;11.07;;;3.47;;
69625;SDS011;56847;51.984;5.088;2022-11-22T10:13:50;8.70;;;3.45;;
69625;SDS011;56847;51.984;5.088;2022-11-22T10:17:06;14.98;;;3.42;;
69625;SDS011;56847;51.984;5.088;2022-11-22T10:19:18;13.18;;;3.40;;
69625;SDS011;56847;51.984;5.088;2022-11-22T10:22:08;10.83;;;3.17;;
69625;SDS011;56847;51.984;5.088;2022-11-22T10:24:38;11.48;;;3.60;;
69625;SDS011;56847;51.984;5.088;2022-11-22T10:27:09;10.90;;;2.72;;
69625;SDS011;56847;51.984;5.088;2022-11-22T10:35:25;11.40;;;3.17;;
69625;SDS011;56847;51.984;5.088;2022-11-22T10:41:24;7.68;;;3.25;;
69625;SDS011;56847;51.984;5.088;2022-11-22T10:52:30;7.53;;;2.63;;
69625;SDS011;56847;51.984;5.088;2022-11-22T11:00:18;11.40;;;4.13;;
69625;SDS011;56847;51.984;5.088;2022-11-22T11:05:32;10.10;;;3.35;;
69625;SDS011;56847;51.984;5.088;2022-11-22T11:08:35;9.57;;;3.50;;
69625;SDS011;56847;51.984;5.088;2022-11-22T11:11:27;12.32;;;3.65;;
69625;SDS011;56847;51.984;5.088;2022-11-22T11:13:57;16.38;;;3.45;;
69625;SDS011;56847;51.984;5.088;2022-11-22T11:16:30;10.23;;;3.50;;
69625;SDS011;56847;51.984;5.088;2022-11-22T11:21:49;11.07;;;4.00;;
69625;SDS011;56847;51.984;5.088;2022-11-22T11:24:38;13.60;;;3.55;;
69625;SDS011;56847;51.984;5.088;2022-11-22T11:27:07;12.57;;;3.88;;
69625;SDS011;56847;51.984;5.088;2022-11-22T11:29:41;13.40;;;4.10;;
69625;SDS011;56847;51.984;5.088;2022-11-22T11:32:23;7.68;;;3.92;;
69625;SDS011;56847;51.984;5.088;2022-11-22T11:35:00;9.38;;;4.13;;
69625;SDS011;56847;51.984;5.088;2022-11-22T11:37:31;20.23;;;4.38;;
69625;SDS011;56847;51.984;5.088;2022-11-22T11:39:59;10.20;;;3.03;;
69625;SDS011;56847;51.984;5.088;2022-11-22T11:42:33;7.37;;;3.33;;
69625;SDS011;56847;51.984;5.088;2022-11-22T11:47:49;8.20;;;3.40;;
69625;SDS011;56847;51.984;5.088;2022-11-22T11:50:18;7.88;;;3.10;;
69625;SDS011;56847;51.984;5.088;2022-11-22T11:52:53;7.50;;;3.30;;
69625;SDS011;56847;51.984;5.088;2022-11-22T11:55:29;4.10;;;2.93;;
69625;SDS011;56847;51.984;5.088;2022-11-22T11:57:59;6.57;;;3.35;;
69625;SDS011;56847;51.984;5.088;2022-11-22T12:00:36;10.65;;;3.50;;
69625;SDS011;56847;51.984;5.088;2022-11-22T12:03:06;11.23;;;3.33;;
69625;SDS011;56847;51.984;5.088;2022-11-22T12:05:37;10.30;;;2.80;;
69625;SDS011;56847;51.984;5.088;2022-11-22T12:08:13;8.27;;;2.27;;
69625;SDS011;56847;51.984;5.088;2022-11-22T12:11:29;11.07;;;3.17;;
69625;SDS011;56847;51.984;5.088;2022-11-22T12:13:58;4.82;;;2.90;;
69625;SDS011;56847;51.984;5.088;2022-11-22T12:16:45;8.10;;;2.85;;
69625;SDS011;56847;51.984;5.088;2022-11-22T12:19:24;5.85;;;3.08;;
69625;SDS011;56847;51.984;5.088;2022-11-22T12:25:21;9.43;;;2.65;;
69625;SDS011;56847;51.984;5.088;2022-11-22T12:30:42;4.05;;;1.98;;
69625;SDS011;56847;51.984;5.088;2022-11-22T12:33:20;4.35;;;2.97;;
69625;SDS011;56847;51.984;5.088;2022-11-22T12:35:52;6.03;;;2.17;;
69625;SDS011;56847;51.984;5.088;2022-11-22T12:38:22;9.52;;;3.30;;
69625;SDS011;56847;51.984;5.088;2022-11-22T12:41:04;7.22;;;2.70;;
69625;SDS011;56847;51.984;5.088;2022-11-22T12:43:36;6.53;;;3.20;;
69625;SDS011;56847;51.984;5.088;2022-11-22T12:46:20;9.57;;;3.33;;
69625;SDS011;56847;51.984;5.088;2022-11-22T12:49:16;6.30;;;2.90;;
69625;SDS011;56847;51.984;5.088;2022-11-22T12:51:45;3.95;;;2.40;;
69625;SDS011;56847;51.984;5.088;2022-11-22T12:54:37;10.50;;;2.45;;
69625;SDS011;56847;51.984;5.088;2022-11-22T12:57:15;4.25;;;2.97;;
69625;SDS011;56847;51.984;5.088;2022-11-22T13:00:00;5.38;;;2.92;;
69625;SDS011;56847;51.984;5.088;2022-11-22T13:02:42;4.87;;;2.90;;
69625;SDS011;56847;51.984;5.088;2022-11-22T13:05:32;3.70;;;2.50;;
69625;SDS011;56847;51.984;5.088;2022-11-22T13:11:17;3.60;;;2.30;;
69625;SDS011;56847;51.984;5.088;2022-11-22T13:13:55;6.63;;;2.65;;
69625;SDS011;56847;51.984;5.088;2022-11-22T13:16:28;5.40;;;2.30;;
69625;SDS011;56847;51.984;5.088;2022-11-22T13:18:57;5.68;;;3.15;;
69625;SDS011;56847;51.984;5.088;2022-11-22T13:21:44;5.50;;;2.83;;
69625;SDS011;56847;51.984;5.088;2022-11-22T13:24:39;9.43;;;2.63;;
69625;SDS011;56847;51.984;5.088;2022-11-22T13:27:19;4.28;;;2.67;;
69625;SDS011;56847;51.984;5.088;2022-11-22T13:29:53;3.60;;;2.10;;
69625;SDS011;56847;51.984;5.088;2022-11-22T13:32:23;8.95;;;2.20;;
69625;SDS011;56847;51.984;5.088;2022-11-22T13:37:35;5.13;;;2.10;;
69625;SDS011;56847;51.984;5.088;2022-11-22T13:40:27;3.78;;;1.95;;
69625;SDS011;56847;51.984;5.088;2022-11-22T13:45:50;4.40;;;2.25;;
69625;SDS011;56847;51.984;5.088;2022-11-22T13:51:12;3.75;;;2.03;;
69625;SDS011;56847;51.984;5.088;2022-11-22T13:53:43;2.88;;;1.95;;
69625;SDS011;56847;51.984;5.088;2022-11-22T13:58:43;3.22;;;2.28;;
69625;SDS011;56847;51.984;5.088;2022-11-22T14:06:49;3.83;;;1.85;;
69625;SDS011;56847;51.984;5.088;2022-11-22T14:09:32;5.00;;;2.20;;
69625;SDS011;56847;51.984;5.088;2022-11-22T14:20:30;4.07;;;2.03;;
69625;SDS011;56847;51.984;5.088;2022-11-22T14:22:49;4.10;;;2.37;;
69625;SDS011;56847;51.984;5.088;2022-11-22T14:28:22;3.22;;;2.15;;
69625;SDS011;56847;51.984;5.088;2022-11-22T14:31:11;3.55;;;2.05;;
69625;SDS011;56847;51.984;5.088;2022-11-22T14:36:43;4.47;;;2.57;;
69625;SDS011;56847;51.984;5.088;2022-11-22T14:45:03;5.15;;;2.85;;
69625;SDS011;56847;51.984;5.088;2022-11-22T14:50:30;7.77;;;2.43;;
69625;SDS011;56847;51.984;5.088;2022-11-22T14:52:59;3.08;;;2.38;;
69625;SDS011;56847;51.984;5.088;2022-11-22T14:55:46;7.80;;;2.28;;
69625;SDS011;56847;51.984;5.088;2022-11-22T14:58:19;4.38;;;2.33;;
69625;SDS011;56847;51.984;5.088;2022-11-22T15:06:30;4.32;;;2.30;;
69625;SDS011;56847;51.984;5.088;2022-11-22T15:12:20;5.47;;;2.60;;
69625;SDS011;56847;51.984;5.088;2022-11-22T15:15:36;2.63;;;2.20;;
69625;SDS011;56847;51.984;5.088;2022-11-22T15:21:33;8.05;;;1.73;;
69625;SDS011;56847;51.984;5.088;2022-11-22T15:24:22;3.58;;;2.60;;
69625;SDS011;56847;51.984;5.088;2022-11-22T15:27:39;9.38;;;2.10;;
69625;SDS011;56847;51.984;5.088;2022-11-22T15:30:33;2.65;;;2.40;;
69625;SDS011;56847;51.984;5.088;2022-11-22T15:33:25;7.13;;;2.23;;
69625;SDS011;56847;51.984;5.088;2022-11-22T15:39:28;2.90;;;2.35;;
69625;SDS011;56847;51.984;5.088;2022-11-22T15:42:19;2.30;;;2.10;;
69625;SDS011;56847;51.984;5.088;2022-11-22T15:45:10;5.68;;;2.20;;
69625;SDS011;56847;51.984;5.088;2022-11-22T15:48:02;2.03;;;1.83;;
69625;SDS011;56847;51.984;5.088;2022-11-22T15:51:02;2.50;;;2.30;;
69625;SDS011;56847;51.984;5.088;2022-11-22T15:56:58;2.78;;;2.55;;
69625;SDS011;56847;51.984;5.088;2022-11-22T15:59:37;5.20;;;2.60;;
69625;SDS011;56847;51.984;5.088;2022-11-22T16:02:15;5.70;;;2.70;;
69625;SDS011;56847;51.984;5.088;2022-11-22T16:04:50;5.53;;;3.03;;
69625;SDS011;56847;51.984;5.088;2022-11-22T16:07:40;3.45;;;3.08;;
69625;SDS011;56847;51.984;5.088;2022-11-22T16:10:19;4.13;;;3.05;;
69625;SDS011;56847;51.984;5.088;2022-11-22T16:13:09;6.55;;;3.50;;
69625;SDS011;56847;51.984;5.088;2022-11-22T16:15:38;4.87;;;3.90;;
69625;SDS011;56847;51.984;5.088;2022-11-22T16:18:06;5.25;;;4.45;;
69625;SDS011;56847;51.984;5.088;2022-11-22T16:20:40;4.32;;;3.90;;
69625;SDS011;56847;51.984;5.088;2022-11-22T16:25:36;6.35;;;3.63;;
69625;SDS011;56847;51.984;5.088;2022-11-22T16:30:59;5.03;;;4.10;;
69625;SDS011;56847;51.984;5.088;2022-11-22T16:33:28;3.83;;;3.42;;
69625;SDS011;56847;51.984;5.088;2022-11-22T16:35:56;4.25;;;3.85;;
69625;SDS011;56847;51.984;5.088;2022-11-22T16:38:26;7.60;;;3.65;;
69625;SDS011;56847;51.984;5.088;2022-11-22T16:40:55;5.63;;;4.40;;
69625;SDS011;56847;51.984;5.088;2022-11-22T16:43:23;4.47;;;3.47;;
69625;SDS011;56847;51.984;5.088;2022-11-22T16:45:52;4.60;;;4.20;;
69625;SDS011;56847;51.984;5.088;2022-11-22T16:48:20;3.50;;;3.20;;
69625;SDS011;56847;51.984;5.088;2022-11-22T16:51:00;4.05;;;3.72;;
69625;SDS011;56847;51.984;5.088;2022-11-22T16:53:36;4.90;;;4.47;;
69625;SDS011;56847;51.984;5.088;2022-11-22T16:56:08;7.00;;;4.22;;
69625;SDS011;56847;51.984;5.088;2022-11-22T16:58:42;8.90;;;5.20;;
69625;SDS011;56847;51.984;5.088;2022-11-22T17:01:13;5.50;;;4.45;;
69625;SDS011;56847;51.984;5.088;2022-11-22T17:03:42;5.07;;;4.60;;
69625;SDS011;56847;51.984;5.088;2022-11-22T17:06:29;5.47;;;4.67;;
69625;SDS011;56847;51.984;5.088;2022-11-22T17:08:58;6.18;;;5.20;;
69625;SDS011;56847;51.984;5.088;2022-11-22T17:11:27;10.70;;;4.72;;
69625;SDS011;56847;51.984;5.088;2022-11-22T17:13:57;13.27;;;10.75;;
69625;SDS011;56847;51.984;5.088;2022-11-22T17:16:25;28.20;;;23.23;;
69625;SDS011;56847;51.984;5.088;2022-11-22T17:18:52;17.17;;;15.10;;
69625;SDS011;56847;51.984;5.088;2022-11-22T17:21:25;24.85;;;18.00;;
69625;SDS011;56847;51.984;5.088;2022-11-22T17:24:03;29.45;;;24.30;;
69625;SDS011;56847;51.984;5.088;2022-11-22T17:26:32;11.55;;;10.15;;
69625;SDS011;56847;51.984;5.088;2022-11-22T17:29:00;12.52;;;10.40;;
69625;SDS011;56847;51.984;5.088;2022-11-22T17:31:27;12.20;;;9.60;;
69625;SDS011;56847;51.984;5.088;2022-11-22T17:33:55;20.45;;;17.98;;
69625;SDS011;56847;51.984;5.088;2022-11-22T17:36:27;18.92;;;15.25;;
69625;SDS011;56847;51.984;5.088;2022-11-22T17:38:56;31.30;;;25.67;;
69625;SDS011;56847;51.984;5.088;2022-11-22T17:41:23;52.92;;;38.17;;
69625;SDS011;56847;51.984;5.088;2022-11-22T17:43:50;69.70;;;56.90;;
69625;SDS011;56847;51.984;5.088;2022-11-22T17:46:20;21.90;;;19.27;;
69625;SDS011;56847;51.984;5.088;2022-11-22T17:48:52;12.35;;;10.70;;
69625;SDS011;56847;51.984;5.088;2022-11-22T17:51:20;20.75;;;17.75;;
69625;SDS011;56847;51.984;5.088;2022-11-22T17:53:47;25.50;;;20.48;;
69625;SDS011;56847;51.984;5.088;2022-11-22T17:56:14;36.40;;;25.43;;
69625;SDS011;56847;51.984;5.088;2022-11-22T17:58:41;105.65;;;65.38;;
69625;SDS011;56847;51.984;5.088;2022-11-22T18:01:12;258.33;;;138.68;;
69625;SDS011;56847;51.984;5.088;2022-11-22T18:03:41;119.82;;;81.95;;
69625;SDS011;56847;51.984;5.088;2022-11-22T18:06:09;32.03;;;26.40;;
69625;SDS011;56847;51.984;5.088;2022-11-22T18:08:37;22.97;;;19.97;;